SiktMolnbas
>≥ 10km≥ 10km ≥ 2000ft≥ 2000ft
< 10km< 10km < 2000ft< 2000ft
< 8km< 8km < 1500ft< 1500ft
< 5km< 5km < 1000ft< 1000ft
< 3km< 3km < 500ft< 500ft

Nytt 18 jan 2017:

Nytt 17 jan 2017:

ESNQ (17:50 UTC)

Kiruna flygplats

METAR

ESNQ 211750Z AUTO 26006KT 9999 NCD M01/M06 Q1021=

TAF

ESNQ 211430Z 2115/2118 30003KT CAVOK PROB40 2115/2118 31013KT=

ESNG (17:50 UTC)

Gällivare (Kavaheden), Lapland Airport

METAR

ESNG 211750Z 24004KT CAVOK M06/M10 Q1022=

TAF

ESNG 211730Z 2118/2122 32008KT CAVOK PROB40 2120/2122 BKN009=

ESPA (17:50 UTC)

Luleå Airport (Kallax)

METAR

ESPA 211750Z VRB01KT CAVOK M09/M10 Q1024=

TAF

ESPA 211730Z 2118/2124 33005KT CAVOK RMK MIL=

ESNL (17:50 UTC)

Lycksele flygplats

METAR

ESNL 211750Z AUTO 29002KT 9999 NCD M13/M15 Q1026=

TAF

Ingen TAF hittades.

ESNU (17:50 UTC)

Umeå City Airport

METAR

ESNU 211750Z 22003KT CAVOK M06/M07 Q1026 RWY 14 RIME OR FROST 51-100 PCT FCT 0.32=

TAF

ESNU 211730Z 2118/2203 28005KT CAVOK=

ESNO (17:50 UTC)

Örnsköldsvik flygplats

METAR

ESNO 211750Z 25005KT 090V260 CAVOK M04/M07 Q1026=

TAF

ESNO 211730Z 2118/2123 27007KT CAVOK=

ESNK (17:50 UTC)

Kramfors-Sollefteå flygplats

METAR

ESNK 211750Z 32005KT CAVOK M08/M09 Q1030=

TAF

ESNK 211730Z 2118/2120 32004KT CAVOK=

ESNN (17:50 UTC)

Sundsvall-Härnösands flygplats (Midlanda)

METAR

FG

ESNN 211750Z VRB01KT 9999 BCFG NSC M07/M07 Q1030 RWY 16 ICE 51-100 PCT FCT 0.39=

TAF

ESNN 211730Z 2118/2123 VRB02KT 9999 MIFG NSC=

ESNZ (17:50 UTC)

Åre Östersund Airport (Frösön)

METAR

FG

ESNZ 211750Z 28002KT 0500 R12/1100D R30/0700N FZFG VV002 M04/M05 Q1029=

TAF

ESNZ 211730Z 2118/2123 VRB02KT 0200 FZFG VV001 PROB40 2118/2121 9999 NSW FEW003 BECMG 2121/2123 CAVOK=

ESNS (17:50 UTC)

Skellefteå flygplats

METAR

ESNS 211750Z 25005KT CAVOK M04/M08 Q1025=

TAF

ESNS 211730Z 2118/2123 26006KT CAVOK=

ESGT (17:50 UTC)

Trollhättan-Vänersborgs flygplats (Malöga flygplats)

METAR

ESGT 211750Z 05007KT 9999 OVC024 02/M01 Q1033 REDZ=

TAF

ESGT 211730Z 2118/2122 05009KT 9999 BKN020=

ESGG (17:50 UTC)

Göteborg-Landvetter flygplats

METAR

ESGG 211750Z 05005KT 9999 BKN017 02/M01 Q1031 RWY 03 DAMP 51-100 PCT BA GOOD=

TAF

ESGG 211730Z 2118/2218 08008KT 9999 BKN018 PROB40 2118/2218 BKN013=

ESMT (17:50 UTC)

Halmstads flygplats

METAR

ESMT 211750Z 09009KT 9999 OVC024 04/M01 Q1030=

TAF

ESMT 211706Z 2118/2122 08008KT 9999 BKN020=

ESTA (17:50 UTC)

Ängelholm-Helsingborg flygplats

METAR

ESTA 211750Z 09013KT 9999 BKN023 03/M01 Q1030=

TAF

ESTA 211706Z 2118/2123 08013KT 9999 BKN020=

ESTL (17:50 UTC)

Ljungbyheds flygplats

METAR

ESTL 211750Z AUTO 09010KT 9999 OVC021/// 03/M01 Q1029=

TAF

ESTL AAY 211423Z 2114/2116 08010KT 9999 BKN012 TEMPO 2114/2116 BKN020=

ESMS (17:50 UTC)

Malmö Airport

METAR

ESMS 211750Z 09015KT 9999 BKN023 04/M00 Q1028=

TAF

ESMS 211708Z 2118/2218 09012KT 9999 BKN020=

ESMK (17:50 UTC)

Kristianstad Airport

METAR

ESMK 211750Z 06008KT 9999 OVC021 04/01 Q1029=

TAF

ESMK 211706Z 2118/2121 08014KT 9999 BKN020=

ESDF (17:50 UTC)

Ronneby flygplats

METAR

ESDF 211750Z 06006KT 9999 OVC022 03/01 Q1030=

TAF

ESDF 211730Z 2118/2123 08008KT 9999 BKN022 PROB40 2118/2123 BKN014=

ESMQ (17:50 UTC)

Kalmar Airport

METAR

ESMQ 211750Z 07007KT 040V100 9999 OVC023 05/01 Q1031=

TAF

ESMQ 211730Z 2118/2123 06009KT 9999 BKN023=

ESMX (17:50 UTC)

Växjö, Smaland Airport

METAR

ESMX 211750Z 05005KT 010V080 9999 OVC019 03/00 Q1030=

TAF

ESMX 211730Z 2118/2123 06007KT 9999 BKN020=

ESGJ (17:50 UTC)

Jönköping Airport

METAR

ESGJ 211750Z 06004KT 9999 FEW010 SCT014 BKN019 01/00 Q1031=

TAF

DZ

ESGJ 211730Z 2118/2202 05006KT 9999 -DZ BKN007 TEMPO 2118/2202 SCT007 BKN015=

ESSA (17:50 UTC)

Stockholm-Arlanda flygplats

METAR

ESSA 211750Z 33004KT 9999 BKN021 01/M03 Q1033 RWY 01L CLEAR AND DRY 51-100 PCT BA GOOD RWY 08 CLEAR AND DRY 51-100 PCT BA GOOD RWY 01R CLEAR AND DRY 51-100 PCT BA GOOD NOSIG=

TAF

BR

ESSA 211730Z 2118/2218 36004KT 9999 BKN020 PROB40 2200/2206 2500 BR BKN006=

ESSB (17:50 UTC)

Stockholm-Bromma flygplats

METAR

ESSB 211750Z VRB02KT 9999 BKN023 02/M02 Q1033 RWY 30 CLEAR AND DRY 51-100 PCT BA GOOD=

TAF

ESSB 211730Z 2118/2121 02004KT 9999 BKN020=

ESKN (17:50 UTC)

Stockholm-Skavsta flygplats

METAR

ESKN 211750Z 04004KT 010V080 9999 FEW007 BKN027 01/00 Q1033 RWY 08 WET OR WATER PATCHES 51-100 PCT 1 MM BA GOOD=

TAF

ESKN 211730Z 2118/2218 04004KT 9999 SCT008 BKN030 TEMPO 2118/2207 BKN006=

ESSP (17:50 UTC)

Norrköping flygplats

METAR

RA

ESSP 211750Z 03005KT 9999 -RA BKN009 OVC016 02/01 Q1033=

TAF

DZ

ESSP 211730Z 2118/2123 04006KT 9999 -DZ BKN008 BECMG 2118/2119 BKN015 PROB40 2118/2123 BKN012=

ESSL (17:50 UTC)

Linköping - SAAB Flygplats

METAR

DZ

ESSL 211750Z 05004KT 9999 -DZ BKN006 OVC008 01/01 Q1033=

TAF

DZ

ESSL 211730Z 2118/2123 05004KT 9999 -DZ SCT006 BKN015 TEMPO 2118/2123 BKN006=

ESSV (17:50 UTC)

Visby flygplats

METAR

ESSV 211750Z 07005KT 9999 BKN026 02/M01 Q1032=

TAF

ESSV 211730Z 2118/2123 06005KT 9999 BKN025 TEMPO 2118/2123 BKN013=

ESOW (17:50 UTC)

Stockholm-Västerås flygplats

METAR

ESOW 211750Z AUTO VRB03KT 9999 OVC021/// 02/M03 Q1034=

TAF

ESOW 211130Z 2112/2115 02005KT 9999 BKN020=

ESOE (17:50 UTC)

Örebro flygplats

METAR

ESOE 211750Z 07002KT 9999 BKN019 02/M01 Q1034=

TAF

ESOE 211730Z 2118/2124 02003KT 9999 OVC020 PROB40 2118/2124 BKN012=

ESOK (17:50 UTC)

Karlstad Airport

METAR

SN

ESOK 211750Z 00000KT 9000 -SN BKN020 00/00 Q1034=

TAF

SN

ESOK 211730Z 2118/2122 VRB02KT 7000 -SN SCT014 BKN020 PROB40 2118/2122 BKN012=

ESSD (17:50 UTC)

Borlänge, Dala Airport

METAR

SN

ESSD 211750Z 27006KT 9999 -SN OVC018 M00/M02 Q1033=

TAF

ESSD 211130Z 2112/2116 07006KT 9999 SCT012 BKN020 PROB40 2112/2116 BKN012=

ESGR (17:20 UTC)

Skövde flygplats

METAR

ESGR 211720Z 03005KT 9999 OVC021 01/M01 Q1033=

TAF

Ingen TAF hittades.

ESIB (17:50 UTC)

Såtenäs

METAR

ESIB 211750Z AUTO 06005KT 9999 OVC025/// 02/M00 Q1033=

TAF

RA

ESIB 211100Z 2112/2116 06010KT 9999 BKN020 PROB30 2112/2116 8000 -RASN BKN015 RMK MIL=

ESNV (17:50 UTC)

Vilhelmina flygplats

METAR

FG

ESNV 211750Z AUTO 00000KT 0150 R10/0550N R28/P2000N BCFG OVC002/// M12/M14 Q1028 RESN=

TAF

Ingen TAF hittades.

ESST (17:50 UTC)

Torsby flygplats (Fryklanda)

METAR

ESST 211750Z 30004KT 9999 OVC023 01/M03 Q1034=

TAF

Ingen TAF hittades.

ESUT (17:50 UTC)

Hemavans flygplats

METAR

ESUT 211750Z AUTO 13001KT 9999 NCD M10/M11 Q1028=

TAF

Ingen TAF hittades.

ESNX (17:50 UTC)

Arvidsjaur flygplats

METAR

ESNX 211750Z AUTO 31009KT 9999 NCD M06/M11 Q1024=

TAF

ESNX 211730Z 2118/2121 31007KT CAVOK=

ESIA (17:50 UTC)

Karlsborg

METAR

ESIA 211750Z AUTO 07009KT 9999 BKN011/// OVC014/// 02/M00 Q1033=

TAF

RA

ESIA 211100Z 2112/2115 06014KT 9999 BKN020 PROB30 2112/2115 8000 -RASN BKN010 RMK MIL=

ESUP (17:50 UTC)

Pajala

METAR

ESUP 211750Z 26008KT CAVOK M02/M07 Q1021=

TAF

Ingen TAF hittades.

ESPE (17:50 UTC)

Vidsel

METAR

ESPE 211750Z VRB01KT CAVOK M15/M16 Q1024=

TAF

ESPE 211730Z 2118/2121 VRB02KT CAVOK RMK MIL=

ESCM (17:50 UTC)

Uppsala

METAR

ESCM 211750Z AUTO 35003KT 9999 OVC021/// 01/M02 Q1033=

TAF

ESCM 211125Z 2112/2115 VRB03KT 9999 BKN020 RMK MIL=

ESKM (17:50 UTC)

Mora/Siljan

METAR

ESKM 211750Z AUTO 26006KT 9999 OVC016/// M01/M04 Q1032=

TAF

Ingen TAF hittades.

EKRN (17:50 UTC)

Bornholm Airport

METAR

EKRN 211750Z AUTO 08012KT 9999NDV OVC019/// 05/01 Q1028=

TAF

EKRN 211713Z 2118/2123 09010KT 9999 OVC020=

EFIV (17:50 UTC)

Ivalo Airport

METAR

EFIV 211750Z AUTO 23007KT 9999 OVC024 02/M02 Q1015=

TAF

Ingen TAF hittades.

EFKT (17:50 UTC)

Kittilä Airport

METAR

EFKT 211750Z AUTO 28008KT 250V320 CAVOK 00/M05 Q1019=

TAF

EFKT 211433Z 2115/2117 28007KT CAVOK=

EFRO (17:50 UTC)

Rovaniemi Airport

METAR

EFRO 211750Z AUTO 32005KT CAVOK M02/M06 Q1020=

TAF

EFRO 211725Z 2118/2218 29008KT CAVOK=

EFKE (17:50 UTC)

Kemi-Tornio Airport

METAR

EFKE 211750Z AUTO 28005KT CAVOK M06/M08 Q1022=

TAF

EFKE 211725Z 2118/2124 28005KT CAVOK=

EFKS (17:50 UTC)

Kuusamo Airport

METAR

EFKS 211750Z AUTO 29011KT 9999 SCT038 M02/M06 Q1016=

TAF

EFKS 211725Z 2118/2122 30012KT 9999 SCT040=

EFOU (17:50 UTC)

Oulu Airport

METAR

EFOU 211750Z AUTO 28009KT CAVOK 01/M01 Q1022=

TAF

EFOU 211725Z 2118/2218 29009KT CAVOK=

EFKI (17:50 UTC)

Kajaani Airport

METAR

EFKI 211750Z AUTO 30012KT 9999 BKN007 00/M02 Q1021=

TAF

EFKI 211725Z 2118/2122 29012KT 9999 BKN007 BECMG 2118/2120 SCT015=

EFKK (17:50 UTC)

Kokkola-Pietarsaari/Kruunupyy Airport

METAR

EFKK 211750Z 23003KT 200V260 CAVOK M01/M02 Q1025=

TAF

EFKK 211725Z 2118/2124 23007KT CAVOK=

EFVA (17:50 UTC)

Vaasa Airport

METAR

EFVA 211750Z AUTO 26006KT 220V290 9999 SCT014/// 02/00 Q1027=

TAF

EFVA 211725Z 2118/2218 26005KT CAVOK=

EFKU (17:50 UTC)

Kuopio Airport

METAR

EFKU 211750Z AUTO 28011KT 9999 OVC010 M01/M03 Q1023=

TAF

EFKU 211725Z 2118/2218 28010KT 9999 BKN008 TEMPO 2118/2203 BKN012 BECMG 2203/2205 SCT030=

EFJY (17:50 UTC)

Jyväskylä Airport

METAR

EFJY 211750Z AUTO 29006KT 250V320 9999 OVC008 M02/M03 Q1025=

TAF

BR

EFJY 211737Z 2118/2218 28006KT 9999 BKN007 PROB30 TEMPO 2122/2206 5000 BR BKN004 BECMG 2206/2208 SCT005 SCT030=

EFTP (17:50 UTC)

Tampere-Pirkkala Airport

METAR

EFTP 211750Z AUTO 23005KT CAVOK M05/M06 Q1029=

TAF

BR

EFTP 211737Z 2118/2218 27006KT 9999 SCT020 TEMPO 2121/2209 BKN012 PROB30 TEMPO 2123/2207 3000 BR BKN003=

EFPO (17:50 UTC)

Pori Airport

METAR

EFPO 211750Z AUTO 20004KT 9999 BKN022/// M02/M02 Q1030=

TAF

EFPO 211123Z 2112/2115 VRB02KT CAVOK=

EFTU (17:50 UTC)

Turku Airport

METAR

EFTU 211750Z AUTO 25002KT 8000 NCD M07/M07 Q1031=

TAF

EFTU 211737Z 2118/2218 28003KT CAVOK TEMPO 2203/2215 BKN012=

EFHK (17:50 UTC)

Helsinki-Vantaa Airport

METAR

EFHK 211750Z 29005KT CAVOK M04/M05 Q1030 NOSIG=

TAF

EFHK 211737Z 2118/2218 29006KT CAVOK PROB30 2203/2211 BKN012=

EFMA (17:50 UTC)

Mariehamn Airport

METAR

EFMA 211750Z AUTO VRB01KT 9999 FZUP NCD M06/M07 Q1032=

TAF

EFMA 211737Z 2118/2203 VRB02KT 9999 BKN020 BECMG 2123/2201 27011KT=

EKSB (17:50 UTC)

Sønderborg Airport

METAR

EKSB 211750Z 10021KT 9999 BKN032 06/02 Q1025=

TAF

EKSB RRA 211811Z 2118/2123 10020KT 9999 BKN025=

EKSP (17:50 UTC)

Vojens Airport

METAR

EKSP 211750Z 08010KT 9999 BKN023 BKN031 05/01 Q1025 NOSIG=

TAF

EKSP 211717Z 2118/2218 08015KT 9999 SCT030 BECMG 2118/2120 08010KT TEMPO 2210/2218 10014G24KT=

EKEB (17:50 UTC)

Esbjerg Airport

METAR

EKEB 211750Z AUTO 09011KT 9999NDV BKN170/// 04/01 Q1026=

TAF

EKEB 211713Z 2118/2123 09015KT 9999 SCT025=

EKYT (17:50 UTC)

Aalborg Airport

METAR

EKYT 211750Z AUTO 08010KT 9999 SCT022/// BKN026/// 04/01 Q1030=

TAF

EKYT 211723Z 2118/2218 07010KT 9999 BKN020=

EKKA (17:50 UTC)

Karup Airport

METAR

EKKA 211750Z AUTO 07012KT 9999NDV OVC029/// 04/02 Q1028=

TAF

EKKA 211723Z 2118/2218 08010KT 9999 BKN020=

EKBI (17:50 UTC)

Billund Airport

METAR

EKBI 211750Z AUTO 08014KT 9999NDV BKN029/// 05/01 Q1026=

TAF

EKBI 211708Z 2118/2218 09015KT 9999 BKN018=

EKVD (17:50 UTC)

Kolding Airport

METAR

EKVD 211750Z AUTO 08013KT //// ///////// 05/02 Q1026=

TAF

EKVD 211158Z 2112/2117 09015KT 9999 BKN020=

EKCH (17:50 UTC)

Copenhagen Airport, Kastrup

METAR

EKCH 211750Z 08013KT 9999 FEW025 BKN027 05/01 Q1029 NOSIG=

TAF

EKCH 211708Z 2118/2218 09012KT 9999 BKN025=

EKRK (17:50 UTC)

Copenhagen Airport, Roskilde

METAR

EKRK 211750Z AUTO 08009KT 9999NDV BKN023/// BKN027/// 04/01 Q1028=

TAF

EKRK 211713Z 2118/2203 09010KT 9999 BKN025=

ENRY (17:50 UTC)

Moss flygplats, Rygge

METAR

ENRY 211750Z 02004KT 350V070 9999 BKN025 02/M03 Q1035=

TAF

ENRY 211700Z 2118/2218 02008KT 9999 SCT015 BKN030 PROB40 2121/2218 0300 FZFG VV001=

ENGM (17:50 UTC)

Oslo flygplats, Gardermoen

METAR

ENGM 211750Z 00000KT 9999 OVC020 00/M04 Q1033 NOSIG=

TAF

ENGM 211700Z 2118/2218 36005KT 9999 FEW015 BKN030 PROB40 2121/2218 0500 FZFG VV002=

ENTO (17:50 UTC)

Sandefjord flygplats, Torp

METAR

ENTO 211750Z 04006KT 010V080 9999 BKN026 02/M02 Q1034=

TAF

ENTO 211700Z 2118/2218 02008KT 9999 BKN020 PROB30 2216/2218 0500 FZFG VV002=

ENCN (17:50 UTC)

Kristiansand flygplats, Kjevik

METAR

RA

ENCN 211750Z 04011KT 9999 -RASN FEW006 BKN009 02/01 Q1032=

TAF

RA

ENCN 211700Z 2118/2122 05010KT 9999 -RA SCT012 BKN020 TEMPO 2118/2122 SCT008 BKN012=

ENZV (17:50 UTC)

Stavanger-Sola flygplats

METAR

ENZV 211750Z VRB01KT CAVOK 00/M05 Q1030 NOSIG=

TAF

ENZV 211700Z 2118/2218 09006KT CAVOK PROB30 2122/2208 0500 FZFG VV001=

ENHD (17:50 UTC)

Haugesund flygplats, Karmøy

METAR

ENHD 211750Z 00000KT CAVOK M01/M04 Q1030=

TAF

ENHD 211700Z 2118/2122 12006KT CAVOK=

ENBR (17:50 UTC)

Bergen flygplats, Flesland

METAR

ENBR 211750Z 32002KT CAVOK 03/M02 Q1030 NOSIG RMK WIND 1200FT 34006KT=

TAF

ENBR 211700Z 2118/2218 VRB05KT CAVOK PROB30 2121/2209 0500 FZFG VV001=

ENBL (17:20 UTC)

Førde flygplats, Bringeland

METAR

ENBL 211720Z 33003KT CAVOK 03/M05 Q1030=

TAF

Ingen TAF hittades.

ENOV (17:50 UTC)

Ørsta-Volda flygplats, Hovden

METAR

ENOV 211750Z VRB01KT CAVOK M03/M05 Q1031 RMK WIND 2175FT 28012KT=

TAF

Ingen TAF hittades.

ENML (17:50 UTC)

Molde flygplats, Årø

METAR

ENML 211750Z 04008KT CAVOK 01/M03 Q1031=

TAF

ENML 211700Z 2118/2122 04008KT CAVOK=

ENKB (17:50 UTC)

Kristiansund flygplats, Kvernberget

METAR

ENKB 211750Z 04005KT CAVOK 04/M02 Q1030 RMK WIND 745FT 22003KT=

TAF

ENKB 211700Z 2118/2122 VRB06KT CAVOK=

ENRO (17:50 UTC)

Røros flygplats

METAR

ENRO 211750Z VRB02KT 9999 OVC004 M07/M07 Q1030=

TAF

BR

ENRO 211100Z 2112/2119 VRB03KT 3000 BR OVC002 TEMPO 2112/2119 9999 SCT002=

ENVA (17:50 UTC)

Trondheim flygplats, Værnes

METAR

ENVA 211750Z 09005KT CAVOK M04/M06 Q1032 NOSIG RMK WIND 670FT 16008KT=

TAF

ENVA 211700Z 2118/2218 12008KT CAVOK PROB40 2200/2218 BKN012=

ENOL (17:50 UTC)

Ørland flygplats

METAR

ENOL 211750Z 12009KT CAVOK 02/M00 Q1030 NOSIG=

TAF

BR

ENOL 211700Z 2118/2218 12012KT CAVOK BECMG 2123/2201 22008KT BKN014 PROB40 2200/2209 2000 BR BKN005 TEMPO 2209/2218 BKN018=

ENRM (17:50 UTC)

Rørvik flygplats, Ryum

METAR

ENRM 211750Z VRB02KT CAVOK M02/M02 Q1030=

TAF

ENRM 211700Z 2118/2121 VRB05KT CAVOK=

ENBN (17:50 UTC)

Brønnøysund flygplats, Brønnøy

METAR

ENBN 211750Z 12002KT CAVOK M00/M01 Q1030=

TAF

ENBN 211400Z 2115/2120 VRB05KT CAVOK=

ENRA (17:50 UTC)

Mo i Rana flygplats, Røssvoll

METAR

ENRA 211750Z 17002KT CAVOK M09/M10 Q1032=

TAF

ENRA 211700Z 2118/2123 VRB05KT CAVOK=

ENBO (17:50 UTC)

Bodö flygplats

METAR

ENBO 211750Z 09010KT 9999 FEW008 BKN022 01/M01 Q1032 NOSIG=

TAF

ENBO 211700Z 2118/2218 10008KT 9999 BKN020=

ENSH (17:50 UTC)

Svolvær flygplats, Helle

METAR

ENSH 211750Z 25005KT 9999 BKN022 03/M01 Q1031 RMK WIND 150FT 22005KT=

TAF

ENSH 211700Z 2118/2122 27008KT 9999 BKN020=

ENAN (17:50 UTC)

Andøya flygplats

METAR

ENAN 211750Z 26019KT 9999 FEW003 SCT005 BKN011 05/03 Q1027=

TAF

ENAN 211700Z 2118/2218 27015KT 9999 BKN025 TEMPO 2118/2218 BKN008 TEMPO 2118/2203 27015G25KT=

ENEV (17:50 UTC)

Harstad-Narvik flygplats

METAR

DZ

ENEV 211750Z 23006KT 9999 -DZ FEW006 BKN020 02/01 Q1030 RMK WIND 1400FT 23020KT=

TAF

ENEV 211700Z 2118/2122 24005KT 9999 FEW015 BKN030 PROB40 2118/2122 BKN012=

ENDU (17:50 UTC)

Bardufoss flygplats

METAR

SHRA

ENDU 211750Z 23008KT 9999 VCSH FEW015 SCT025 BKN035 03/M01 Q1026 TEMPO 22015G25KT RMK WIND 1100FT 23015KT WIND 2200FT 26025KT=

TAF

ENDU 211700Z 2118/2218 24008KT 9999 FEW010 BKN035 TEMPO 2118/2124 22015G25KT=

ENTC (17:50 UTC)

Tromsø flygplats

METAR

SHRA

ENTC 211750Z 20017KT 9999 VCSH FEW006 BKN014 04/03 Q1025 NOSIG=

TAF

SHRA

ENTC 211700Z 2118/2218 21008KT 9999 -SHRA FEW005 BKN030 TEMPO 2118/2218 21020KT BKN008=

ENAT (17:50 UTC)

Alta flygplats

METAR

ENAT 211750Z 32016G27KT 9999 BKN028 06/02 Q1018 RMK WIND 700FT 33019KT=

TAF

ENAT CCA 211700Z 2118/2123 29008KT 9999 FEW015 BKN030 TEMPO 2118/2123 31020G30KT=

ENNA (17:50 UTC)

Lakselv flygplats

METAR

DZ

ENNA 211750Z 33023KT 9999 -DZ SCT035 06/02 Q1016 RMK WIND 1800FT 31031KT=

TAF

SHRASN

ENNA 211700Z 2118/2218 31020G30KT 9999 FEW015 BKN035 TEMPO 2118/2203 31030G45KT -SHRASN BKN014 BECMG 2202/2205 35012KT BECMG 2209/2212 18008KT=

ENHF (17:50 UTC)

Hammerfest flygplats

METAR

SHRA

ENHF 211750Z 27017G29KT 240V310 9999 VCSH FEW011 SCT014 BKN026 05/03 Q1017 RMK WIND 1254FT 29033KT=

TAF

RA

ENHF 211700Z 2118/2203 26015G25KT 9999 FEW010 BKN025 TEMPO 2118/2203 VRB08G20KT 4000 RADZ BKN012=

ENKR (17:50 UTC)

Kirkenes Airport, Høybuktmoen

METAR

ENKR 211750Z 33015KT 9999 BKN024 04/00 Q1011 RMK WIND 731FT 31020KT=

TAF

SHSN

ENKR 211700Z 2118/2203 32008KT 9999 FEW010 BKN030 TEMPO 2118/2203 32020KT 4000 -SHSNRA VV012=

ENLK (17:20 UTC)

Leknes Airport

METAR

ENLK 211720Z 21003KT 9999 BKN020 03/00 Q1030=

TAF

Ingen TAF hittades.

ENNO (17:50 UTC)

Notodden Airport, Tuven

METAR

ENNO 211750Z 32004KT 9999 BKN030 03/M03 Q1035=

TAF

ENNO 211100Z 2112/2118 30005KT 9999 BKN035=

ENST (17:50 UTC)

Sandnessjøen Airport, Stokka

METAR

ENST 211750Z 05008KT CAVOK M00/M02 Q1030 RMK WIND 300FT 06013KT=

TAF

Ingen TAF hittades.

ENSK (17:50 UTC)

Stokmarknes Airport, Skagen

METAR

RA

ENSK 211750Z 26008KT 9999 -RA FEW007 SCT015 BKN025 04/02 Q1030=

TAF

Ingen TAF hittades.

ENSR (17:20 UTC)

Sørkjosen Airport

METAR

ENSR 211720Z 35012G22KT 9999 FEW020 SCT050 07/00 Q1021 WIND 1119FT 28023G34KT=

TAF

Ingen TAF hittades.

ENNM (17:50 UTC)

Namsos Airport, Høknesøra

METAR

ENNM 211750Z 05015KT CAVOK M04/M05 Q1031=

TAF

Ingen TAF hittades.